Time;durP1;ratioP1;P1;durP2;ratioP2;P2;SDS_P1;SDS_P2;PMS_P1;PMS_P2;Temp;Humidity;BMP_temperature;BMP_pressure;BME280_temperature;BME280_humidity;BME280_pressure;Samples;Min_cycle;Max_cycle;Signal;HPM_P1;HPM_P2
2021/03/24 00:02:09;;;;;;;;;;;;;;;;;;5031183;28;19936;-68
2021/03/24 00:04:35;;;;;;;;;;;;;;;;;;5031986;28;19955;-68
2021/03/24 00:07:01;;;;;;;;;;;;;;;;;;5030757;28;19934;-68
2021/03/24 00:09:27;;;;;;;;;;;;;;;;;;5031519;28;19951;-68
2021/03/24 00:11:53;;;;;;;;;;;;;;;;;;5030778;28;20443;-68
2021/03/24 00:14:19;;;;;;;;;;;;;;;;;;5031682;28;19928;-68
2021/03/24 00:16:45;;;;;;;;;;;;;;;;;;5031754;28;20452;-69
2021/03/24 00:19:10;;;;;;;;;;;;;;;;;;5031523;28;20327;-68
2021/03/24 00:21:36;;;;;;;;;;;;;;;;;;5030751;28;20029;-68
2021/03/24 00:24:02;;;;;;;;;;;;;;;;;;5031431;28;20460;-68
2021/03/24 00:26:28;;;;;;;;;;;;;;;;;;5032455;28;19932;-68
2021/03/24 00:28:54;;;;;;;;;;;;;;;;;;5031411;28;19944;-69
2021/03/24 00:31:20;;;;;;;;;;;;;;;;;;5031393;28;20010;-67
2021/03/24 00:33:46;;;;;;;;;;;;;;;;;;5031377;28;19935;-67
2021/03/24 00:36:12;;;;;;;;;;;;;;;;;;5031601;28;20026;-67
2021/03/24 00:38:38;;;;;;;;;;;;;;;;;;5031747;28;19925;-67
2021/03/24 00:41:05;;;;;;;;;;;;;;;;;;5031360;28;19940;-67
2021/03/24 00:43:31;;;;;;;;;;;;;;;;;;5030851;28;19937;-67
2021/03/24 00:45:57;;;;;;;;;;;;;;;;;;5031986;28;19986;-68
2021/03/24 00:48:23;;;;;;;;;;;;;;;;;;5019747;28;19939;-68
2021/03/24 00:50:49;;;;;;;;;;;;;;;;;;5029279;28;19972;-68
2021/03/24 00:53:15;;;;;;;;;;;;;;;;;;5030999;28;19939;-68
2021/03/24 00:55:40;;;;;;;;;;;;;;;;;;5030997;28;20314;-68
2021/03/24 00:58:06;;;;;;;;;;;;;;;;;;5031351;28;20012;-68
2021/03/24 01:00:32;;;;;;;;;;;;;;;;;;5031083;28;19951;-67
2021/03/24 01:02:58;;;;;;;;;;;;;;;;;;5030923;28;19980;-68
2021/03/24 01:05:24;;;;;;;;;;;;;;;;;;5032008;28;20410;-68
2021/03/24 01:07:50;;;;;;;;;;;;;;;;;;5031549;28;20399;-68
2021/03/24 01:10:15;;;;;;;;;;;;;;;;;;5032351;28;19959;-68
2021/03/24 01:12:41;;;;;;;;;;;;;;;;;;5031955;28;19951;-67
2021/03/24 01:15:07;;;;;;;;;;;;;;;;;;5031996;28;19935;-68
2021/03/24 01:17:33;;;;;;;;;;;;;;;;;;5031666;28;19926;-68
2021/03/24 01:19:59;;;;;;;;;;;;;;;;;;5012865;28;19958;-68
2021/03/24 01:22:25;;;;;;;;;;;;;;;;;;5031142;28;19931;-68
2021/03/24 01:24:53;;;;;;;;;;;;;;;;;;5031101;28;19926;-68
2021/03/24 01:27:19;;;;;;;;;;;;;;;;;;5030900;28;19938;-68
2021/03/24 01:29:44;;;;;;;;;;;;;;;;;;5029652;28;19947;-68
2021/03/24 01:32:10;;;;;;;;;;;;;;;;;;5034466;28;19974;-68
2021/03/24 01:34:36;;;;;;;;;;;;;;;;;;5039519;28;19944;-68
2021/03/24 01:37:02;;;;;;;;;;;;;;;;;;5037280;28;20342;-68
2021/03/24 01:39:28;;;;;;;;;;;;;;;;;;5034245;28;19948;-68
2021/03/24 01:41:54;;;;;;;;;;;;;;;;;;5015103;28;19945;-68
2021/03/24 01:44:19;;;;;;;;;;;;;;;;;;5033064;28;19931;-68
2021/03/24 01:46:45;;;;;;;;;;;;;;;;;;5033562;28;20409;-68
2021/03/24 01:49:11;;;;;;;;;;;;;;;;;;5033791;28;19946;-68
2021/03/24 01:51:37;;;;;;;;;;;;;;;;;;5034304;28;20002;-68
2021/03/24 01:54:03;;;;;;;;;;;;;;;;;;5034596;28;19926;-68
2021/03/24 01:56:29;;;;;;;;;;;;;;;;;;5034394;28;19935;-68
2021/03/24 01:58:55;;;;;;;;;;;;;;;;;;5034474;28;19977;-68
2021/03/24 02:01:20;;;;;;;;;;;;;;;;;;5035323;28;19952;-67
2021/03/24 02:03:46;;;;;;;;;;;;;;;;;;5040387;28;19984;-67
2021/03/24 02:06:12;;;;;;;;;;;;;;;;;;5038456;28;20033;-67
2021/03/24 02:08:38;;;;;;;;;;;;;;;;;;5032857;28;19955;-68
2021/03/24 02:11:04;;;;;;;;;;;;;;;;;;5033706;28;19952;-67
2021/03/24 02:13:30;;;;;;;;;;;;;;;;;;5034115;28;19928;-68
2021/03/24 02:15:56;;;;;;;;;;;;;;;;;;5034012;28;20016;-67
2021/03/24 02:18:21;;;;;;;;;;;;;;;;;;5032348;28;20321;-68
2021/03/24 02:20:47;;;;;;;;;;;;;;;;;;5033403;28;19961;-69
2021/03/24 02:23:13;;;;;;;;;;;;;;;;;;5033842;28;20457;-68
2021/03/24 02:25:39;;;;;;;;;;;;;;;;;;5025399;28;19936;-68
2021/03/24 02:28:05;;;;;;;;;;;;;;;;;;5029514;28;20031;-68
2021/03/24 02:30:31;;;;;;;;;;;;;;;;;;5033066;28;20025;-68
2021/03/24 02:32:57;;;;;;;;;;;;;;;;;;5032947;28;19991;-67
2021/03/24 02:35:22;;;;;;;;;;;;;;;;;;5033602;28;19923;-69
2021/03/24 02:37:48;;;;;;;;;;;;;;;;;;5033250;28;20068;-69
2021/03/24 02:40:14;;;;;;;;;;;;;;;;;;5033249;28;19948;-69
2021/03/24 02:42:40;;;;;;;;;;;;;;;;;;5032453;28;19934;-68
2021/03/24 02:45:06;;;;;;;;;;;;;;;;;;5032212;28;19934;-69
2021/03/24 02:47:32;;;;;;;;;;;;;;;;;;5033172;28;19926;-69
2021/03/24 02:49:58;;;;;;;;;;;;;;;;;;5033137;28;19946;-69
2021/03/24 02:52:23;;;;;;;;;;;;;;;;;;5031749;28;20291;-69
2021/03/24 02:54:49;;;;;;;;;;;;;;;;;;5033297;28;19928;-68
2021/03/24 02:57:15;;;;;;;;;;;;;;;;;;5033068;28;20413;-69
2021/03/24 02:59:44;;;;;;;;;;;;;;;;;;5032558;28;20045;-68
2021/03/24 03:02:10;;;;;;;;;;;;;;;;;;5032527;28;19941;-68
2021/03/24 03:04:36;;;;;;;;;;;;;;;;;;5033182;28;19923;-68
2021/03/24 03:07:01;;;;;;;;;;;;;;;;;;5032920;28;20399;-68
2021/03/24 03:09:27;;;;;;;;;;;;;;;;;;5033072;28;20117;-68
2021/03/24 03:11:53;;;;;;;;;;;;;;;;;;5032669;28;19954;-68
2021/03/24 03:14:19;;;;;;;;;;;;;;;;;;5014982;28;20021;-69
2021/03/24 03:16:45;;;;;;;;;;;;;;;;;;5031909;28;19931;-68
2021/03/24 03:19:11;;;;;;;;;;;;;;;;;;5032333;28;19952;-68
2021/03/24 03:21:37;;;;;;;;;;;;;;;;;;5032062;28;19938;-68
2021/03/24 03:24:02;;;;;;;;;;;;;;;;;;5032652;28;19926;-68
2021/03/24 03:26:28;;;;;;;;;;;;;;;;;;5032108;28;19928;-68
2021/03/24 03:28:54;;;;;;;;;;;;;;;;;;5032145;28;20040;-68
2021/03/24 03:31:20;;;;;;;;;;;;;;;;;;5032047;28;20355;-68
2021/03/24 03:33:46;;;;;;;;;;;;;;;;;;5032319;28;19939;-68
2021/03/24 03:36:12;;;;;;;;;;;;;;;;;;5032410;28;19978;-68
2021/03/24 03:38:37;;;;;;;;;;;;;;;;;;5032065;28;19942;-68
2021/03/24 03:41:03;;;;;;;;;;;;;;;;;;5031959;28;19982;-68
2021/03/24 03:43:29;;;;;;;;;;;;;;;;;;5031182;28;20416;-68
2021/03/24 03:45:55;;;;;;;;;;;;;;;;;;5031898;28;20028;-69
2021/03/24 03:48:21;;;;;;;;;;;;;;;;;;5031914;28;19946;-69
2021/03/24 03:50:47;;;;;;;;;;;;;;;;;;5030474;28;20026;-69
2021/03/24 03:53:13;;;;;;;;;;;;;;;;;;5031872;28;20013;-69
2021/03/24 03:55:38;;;;;;;;;;;;;;;;;;5031155;28;20386;-68
2021/03/24 03:58:04;;;;;;;;;;;;;;;;;;5031687;28;19932;-68
2021/03/24 04:00:30;;;;;;;;;;;;;;;;;;5031788;28;19966;-68
2021/03/24 04:02:56;;;;;;;;;;;;;;;;;;5031397;28;19941;-68
2021/03/24 04:05:22;;;;;;;;;;;;;;;;;;5014297;28;20025;-68
2021/03/24 04:07:48;;;;;;;;;;;;;;;;;;5031474;28;19938;-68
2021/03/24 04:10:14;;;;;;;;;;;;;;;;;;5031764;28;19939;-68
2021/03/24 04:12:40;;;;;;;;;;;;;;;;;;5031349;28;19956;-68
2021/03/24 04:15:06;;;;;;;;;;;;;;;;;;5031696;28;19996;-68
2021/03/24 04:17:32;;;;;;;;;;;;;;;;;;5031443;28;19960;-68
2021/03/24 04:19:58;;;;;;;;;;;;;;;;;;5056137;22;20058;-71
2021/03/24 04:22:24;;;;;;;;;;;;;;;;;;5064942;28;19928;-71
2021/03/24 04:24:49;;;;;;;;;;;;;;;;;;5068179;28;19935;-71
2021/03/24 04:27:15;;;;;;;;;;;;;;;;;;5064611;28;20022;-71
2021/03/24 04:29:41;;;;;;;;;;;;;;;;;;5066671;28;19951;-72
2021/03/24 04:32:07;;;;;;;;;;;;;;;;;;5058695;28;19964;-72
2021/03/24 04:34:33;;;;;;;;;;;;;;;;;;5071577;28;19980;-70
2021/03/24 04:36:59;;;;;;;;;;;;;;;;;;5060334;28;20541;-70
2021/03/24 04:39:25;;;;;;;;;;;;;;;;;;5070754;28;19945;-70
2021/03/24 04:41:50;;;;;;;;;;;;;;;;;;5067265;28;20390;-70
2021/03/24 04:44:16;;;;;;;;;;;;;;;;;;5063114;28;20317;-71
2021/03/24 04:46:42;;;;;;;;;;;;;;;;;;5067915;28;19957;-71
2021/03/24 04:49:08;;;;;;;;;;;;;;;;;;5070894;28;19936;-71
2021/03/24 04:51:34;;;;;;;;;;;;;;;;;;5061113;28;19947;-71
2021/03/24 04:54:00;;;;;;;;;;;;;;;;;;5070965;28;19977;-71
2021/03/24 04:56:26;;;;;;;;;;;;;;;;;;5070267;28;19972;-70
2021/03/24 04:58:51;;;;;;;;;;;;;;;;;;5071031;28;19952;-71
2021/03/24 05:01:17;;;;;;;;;;;;;;;;;;5070637;28;20360;-71
2021/03/24 05:03:43;;;;;;;;;;;;;;;;;;5070115;28;19930;-71
2021/03/24 05:06:09;;;;;;;;;;;;;;;;;;5048387;28;19928;-71
2021/03/24 05:08:35;;;;;;;;;;;;;;;;;;5055341;28;19967;-71
2021/03/24 05:11:01;;;;;;;;;;;;;;;;;;5068104;28;20432;-71
2021/03/24 05:13:27;;;;;;;;;;;;;;;;;;5063281;28;20359;-72
2021/03/24 05:15:52;;;;;;;;;;;;;;;;;;5065127;28;19932;-71
2021/03/24 05:18:18;;;;;;;;;;;;;;;;;;5065231;28;19925;-72
2021/03/24 05:20:45;;;;;;;;;;;;;;;;;;5045870;28;20323;-72
2021/03/24 05:23:11;;;;;;;;;;;;;;;;;;5064814;28;19922;-71
2021/03/24 05:25:36;;;;;;;;;;;;;;;;;;5065225;28;20340;-72
2021/03/24 05:28:02;;;;;;;;;;;;;;;;;;5064983;28;20364;-72
2021/03/24 05:30:28;;;;;;;;;;;;;;;;;;5069231;28;19939;-71
2021/03/24 05:32:54;;;;;;;;;;;;;;;;;;5068717;28;19946;-72
2021/03/24 05:35:20;;;;;;;;;;;;;;;;;;5066365;28;19929;-72
2021/03/24 05:37:46;;;;;;;;;;;;;;;;;;5063349;28;19936;-70
2021/03/24 05:40:11;;;;;;;;;;;;;;;;;;5064818;28;20337;-71
2021/03/24 05:42:37;;;;;;;;;;;;;;;;;;5063484;28;19927;-71
2021/03/24 05:45:03;;;;;;;;;;;;;;;;;;5067047;28;19928;-72
2021/03/24 05:47:29;;;;;;;;;;;;;;;;;;5067647;28;19924;-72
2021/03/24 05:49:55;;;;;;;;;;;;;;;;;;5061076;28;19956;-72
2021/03/24 05:52:21;;;;;;;;;;;;;;;;;;5065222;28;20325;-73
2021/03/24 05:54:46;;;;;;;;;;;;;;;;;;5068341;28;19980;-73
2021/03/24 05:57:12;;;;;;;;;;;;;;;;;;5053569;28;19956;-74
2021/03/24 05:59:38;;;;;;;;;;;;;;;;;;5066003;28;19985;-72
2021/03/24 06:02:04;;;;;;;;;;;;;;;;;;5067652;28;19926;-71
2021/03/24 06:04:30;;;;;;;;;;;;;;;;;;5063781;28;20391;-73
2021/03/24 06:06:56;;;;;;;;;;;;;;;;;;5063313;28;19928;-74
2021/03/24 06:09:22;;;;;;;;;;;;;;;;;;5065011;28;19972;-73
2021/03/24 06:11:47;;;;;;;;;;;;;;;;;;5069074;28;19964;-75
2021/03/24 06:14:13;;;;;;;;;;;;;;;;;;5073901;28;19931;-75
2021/03/24 06:16:39;;;;;;;;;;;;;;;;;;5073215;28;19930;-74
2021/03/24 06:19:07;;;;;;;;;;;;;;;;;;5071244;28;19929;-73
2021/03/24 06:21:33;;;;;;;;;;;;;;;;;;5072854;28;19961;-74
2021/03/24 06:23:59;;;;;;;;;;;;;;;;;;5055035;28;19931;-73
2021/03/24 06:26:25;;;;;;;;;;;;;;;;;;5070354;28;19951;-74
2021/03/24 06:28:53;;;;;;;;;;;;;;;;;;5070467;28;20440;-72
2021/03/24 06:31:19;;;;;;;;;;;;;;;;;;5072385;28;20616;-73
2021/03/24 06:33:45;;;;;;;;;;;;;;;;;;5069544;28;19927;-74
2021/03/24 06:36:10;;;;;;;;;;;;;;;;;;5063203;28;20007;-74
2021/03/24 06:38:36;;;;;;;;;;;;;;;;;;5044334;28;19962;-71
2021/03/24 06:41:02;;;;;;;;;;;;;;;;;;5064204;28;19953;-73
2021/03/24 06:43:28;;;;;;;;;;;;;;;;;;5064782;28;19957;-72
2021/03/24 06:45:54;;;;;;;;;;;;;;;;;;5066606;28;20020;-73
2021/03/24 06:48:20;;;;;;;;;;;;;;;;;;5066495;28;19953;-72
2021/03/24 06:50:46;;;;;;;;;;;;;;;;;;5066128;28;20039;-74
2021/03/24 06:53:11;;;;;;;;;;;;;;;;;;5055750;28;19952;-74
2021/03/24 06:55:37;;;;;;;;;;;;;;;;;;5070274;28;20392;-74
2021/03/24 06:58:03;;;;;;;;;;;;;;;;;;5067458;28;19928;-73
2021/03/24 07:00:29;;;;;;;;;;;;;;;;;;5063218;28;20038;-73
2021/03/24 07:02:55;;;;;;;;;;;;;;;;;;5068971;28;19934;-73
2021/03/24 07:05:21;;;;;;;;;;;;;;;;;;5066826;28;20007;-73
2021/03/24 07:07:47;;;;;;;;;;;;;;;;;;5073429;28;19935;-71
2021/03/24 07:10:12;;;;;;;;;;;;;;;;;;5060675;28;20167;-73
2021/03/24 07:12:38;;;;;;;;;;;;;;;;;;5054136;28;19950;-74
2021/03/24 07:15:04;;;;;;;;;;;;;;;;;;5053451;28;19966;-72
2021/03/24 07:17:30;;;;;;;;;;;;;;;;;;5054415;28;19934;-73
2021/03/24 07:19:56;;;;;;;;;;;;;;;;;;5053364;28;20399;-73
2021/03/24 07:22:22;;;;;;;;;;;;;;;;;;5053246;28;19932;-72
2021/03/24 07:24:48;;;;;;;;;;;;;;;;;;5063292;28;21043;-74
2021/03/24 07:27:13;;;;;;;;;;;;;;;;;;5063591;28;19932;-72
2021/03/24 07:29:39;;;;;;;;;;;;;;;;;;5056249;28;20030;-73
2021/03/24 07:32:06;;;;;;;;;;;;;;;;;;5066885;28;19945;-74
2021/03/24 07:34:32;;;;;;;;;;;;;;;;;;5044431;28;19936;-73
2021/03/24 07:36:58;;;;;;;;;;;;;;;;;;5055769;28;20399;-72
2021/03/24 07:39:24;;;;;;;;;;;;;;;;;;5052386;28;20108;-72
2021/03/24 07:41:50;;;;;;;;;;;;;;;;;;5061114;28;19935;-74
2021/03/24 07:44:16;;;;;;;;;;;;;;;;;;5065798;28;19959;-74
2021/03/24 07:46:42;;;;;;;;;;;;;;;;;;5059211;28;19931;-74
2021/03/24 07:49:10;;;;;;;;;;;;;;;;;;5065728;28;19981;-73
2021/03/24 07:51:36;;;;;;;;;;;;;;;;;;5051647;28;19945;-73
2021/03/24 07:54:02;;;;;;;;;;;;;;;;;;5068507;28;20422;-72
2021/03/24 07:56:28;;;;;;;;;;;;;;;;;;5066667;28;20280;-72
2021/03/24 07:58:53;;;;;;;;;;;;;;;;;;5065219;28;19929;-72
2021/03/24 08:01:19;;;;;;;;;;;;;;;;;;5052754;28;20071;-72
2021/03/24 08:03:45;;;;;;;;;;;;;;;;;;5043342;28;19940;-70
2021/03/24 08:06:12;;;;;;;;;;;;;;;;;;5062988;28;19931;-74
2021/03/24 08:08:37;;;;;;;;;;;;;;;;;;5060810;28;20011;-74
2021/03/24 08:11:03;;;;;;;;;;;;;;;;;;5061366;28;19954;-73
2021/03/24 08:13:29;;;;;;;;;;;;;;;;;;5050624;28;19974;-75
2021/03/24 08:15:55;;;;;;;;;;;;;;;;;;5062647;28;19941;-76
2021/03/24 08:18:21;;;;;;;;;;;;;;;;;;5063935;28;20476;-74
2021/03/24 08:20:47;;;;;;;;;;;;;;;;;;5068062;28;19998;-74
2021/03/24 08:23:13;;;;;;;;;;;;;;;;;;5068790;28;19928;-70
2021/03/24 08:25:38;;;;;;;;;;;;;;;;;;5070938;28;20424;-74
2021/03/24 08:28:04;;;;;;;;;;;;;;;;;;5074064;28;19961;-72
2021/03/24 08:30:30;;;;;;;;;;;;;;;;;;5066964;28;20060;-73
2021/03/24 08:32:56;;;;;;;;;;;;;;;;;;5065058;28;19952;-74
2021/03/24 08:35:22;;;;;;;;;;;;;;;;;;5049179;28;20017;-74
2021/03/24 08:37:48;;;;;;;;;;;;;;;;;;5060009;28;19987;-73
2021/03/24 08:40:14;;;;;;;;;;;;;;;;;;5060504;28;19948;-76
2021/03/24 08:42:39;;;;;;;;;;;;;;;;;;5060691;28;19928;-70
2021/03/24 08:45:05;;;;;;;;;;;;;;;;;;5065080;28;19928;-73
2021/03/24 08:47:31;;;;;;;;;;;;;;;;;;5066707;28;19930;-74
2021/03/24 08:49:57;;;;;;;;;;;;;;;;;;5062742;28;19949;-71
2021/03/24 08:52:23;;;;;;;;;;;;;;;;;;5064939;28;20407;-74
2021/03/24 08:54:49;;;;;;;;;;;;;;;;;;5057975;28;20027;-71
2021/03/24 08:57:15;;;;;;;;;;;;;;;;;;5057574;28;19924;-74
2021/03/24 08:59:41;;;;;;;;;;;;;;;;;;5067687;28;19942;-73
2021/03/24 09:02:06;;;;;;;;;;;;;;;;;;5082572;28;19936;-73
2021/03/24 09:04:32;;;;;;;;;;;;;;;;;;5071110;28;19963;-74
2021/03/24 09:06:58;;;;;;;;;;;;;;;;;;5044646;28;20307;-75
2021/03/24 09:09:24;;;;;;;;;;;;;;;;;;5043221;28;19946;-73
2021/03/24 09:11:50;;;;;;;;;;;;;;;;;;5060094;28;19994;-73
2021/03/24 09:14:16;;;;;;;;;;;;;;;;;;5047819;28;20340;-71
2021/03/24 09:16:42;;;;;;;;;;;;;;;;;;5048449;28;19939;-73
2021/03/24 09:19:08;;;;;;;;;;;;;;;;;;5063200;28;20590;-73
2021/03/24 09:21:33;;;;;;;;;;;;;;;;;;5065350;28;19943;-71
2021/03/24 09:23:59;;;;;;;;;;;;;;;;;;5066651;28;19925;-73
2021/03/24 09:26:25;;;;;;;;;;;;;;;;;;5066055;28;19956;-73
2021/03/24 09:28:51;;;;;;;;;;;;;;;;;;5048238;28;20316;-73
2021/03/24 09:31:17;;;;;;;;;;;;;;;;;;5063478;28;20005;-74
2021/03/24 09:33:43;;;;;;;;;;;;;;;;;;5062161;28;19933;-72
2021/03/24 09:36:09;;;;;;;;;;;;;;;;;;5053240;28;19936;-74
2021/03/24 09:38:35;;;;;;;;;;;;;;;;;;5065613;28;19937;-72
2021/03/24 09:41:01;;;;;;;;;;;;;;;;;;5042869;28;19944;-71
2021/03/24 09:43:26;;;;;;;;;;;;;;;;;;5058860;28;19934;-72
2021/03/24 09:45:52;;;;;;;;;;;;;;;;;;5067568;28;19942;-73
2021/03/24 09:48:20;;;;;;;;;;;;;;;;;;5047805;28;20008;-72
2021/03/24 09:50:45;;;;;;;;;;;;;;;;;;5062594;28;20466;-73
2021/03/24 09:53:11;;;;;;;;;;;;;;;;;;5060725;28;20031;-71
2021/03/24 09:55:37;;;;;;;;;;;;;;;;;;5066589;28;19925;-73
2021/03/24 09:58:03;;;;;;;;;;;;;;;;;;5058548;28;20397;-73
2021/03/24 10:00:29;;;;;;;;;;;;;;;;;;5072586;28;19946;-74
2021/03/24 10:02:55;;;;;;;;;;;;;;;;;;5052325;28;19959;-74
2021/03/24 10:05:21;;;;;;;;;;;;;;;;;;5073578;28;19983;-73
2021/03/24 10:07:46;;;;;;;;;;;;;;;;;;5075071;28;19930;-75
2021/03/24 10:10:12;;;;;;;;;;;;;;;;;;5075133;28;19944;-75
2021/03/24 10:12:38;;;;;;;;;;;;;;;;;;5073447;28;19959;-73
2021/03/24 10:15:04;;;;;;;;;;;;;;;;;;5072724;28;19940;-74
2021/03/24 10:17:30;;;;;;;;;;;;;;;;;;5074709;28;20486;-75
2021/03/24 10:19:56;;;;;;;;;;;;;;;;;;5088272;22;19985;-71
2021/03/24 10:22:22;;;;;;;;;;;;;;;;;;5058021;28;19948;-71
2021/03/24 10:24:48;;;;;;;;;;;;;;;;;;5044230;28;19933;-70
2021/03/24 10:27:14;;;;;;;;;;;;;;;;;;5052782;28;19960;-71
2021/03/24 10:29:40;;;;;;;;;;;;;;;;;;5042697;28;19927;-68
2021/03/24 10:32:05;;;;;;;;;;;;;;;;;;5030984;28;19981;-69
2021/03/24 10:34:32;;;;;;;;;;;;;;;;;;5036494;28;19930;-69
2021/03/24 10:36:57;;;;;;;;;;;;;;;;;;5036030;28;19942;-69
2021/03/24 10:39:23;;;;;;;;;;;;;;;;;;5026580;28;19935;-69
2021/03/24 10:41:49;;;;;;;;;;;;;;;;;;5025442;28;20416;-69
2021/03/24 10:44:15;;;;;;;;;;;;;;;;;;5030675;28;19937;-70
2021/03/24 10:46:41;;;;;;;;;;;;;;;;;;5035982;28;19933;-69
2021/03/24 10:49:08;;;;;;;;;;;;;;;;;;5033741;28;19970;-71
2021/03/24 10:51:34;;;;;;;;;;;;;;;;;;5033973;28;19993;-69
2021/03/24 10:54:02;;;;;;;;;;;;;;;;;;5028109;28;20157;-66
2021/03/24 10:56:29;;;;;;;;;;;;;;;;;;5029983;28;19933;-68
2021/03/24 10:58:55;;;;;;;;;;;;;;;;;;5027617;28;19994;-68
2021/03/24 11:01:21;;;;;;;;;;;;;;;;;;5009602;28;20447;-69
2021/03/24 11:03:47;;;;;;;;;;;;;;;;;;5033152;28;19945;-69
2021/03/24 11:06:13;;;;;;;;;;;;;;;;;;5035886;28;19972;-69
2021/03/24 11:08:39;;;;;;;;;;;;;;;;;;5043448;28;20426;-69
2021/03/24 11:11:05;;;;;;;;;;;;;;;;;;5035081;28;19961;-74
2021/03/24 11:13:31;;;;;;;;;;;;;;;;;;5034528;28;19929;-69
2021/03/24 11:15:57;;;;;;;;;;;;;;;;;;5036393;28;19929;-70
2021/03/24 11:18:22;;;;;;;;;;;;;;;;;;5037392;28;19930;-69
2021/03/24 11:20:48;;;;;;;;;;;;;;;;;;5043918;28;19968;-70
2021/03/24 11:23:14;;;;;;;;;;;;;;;;;;5037240;28;19931;-69
2021/03/24 11:25:40;;;;;;;;;;;;;;;;;;5044601;28;19957;-69
2021/03/24 11:28:07;;;;;;;;;;;;;;;;;;5046381;28;19976;-69
2021/03/24 11:30:33;;;;;;;;;;;;;;;;;;5051005;28;19997;-70
2021/03/24 11:32:58;;;;;;;;;;;;;;;;;;5043850;28;19948;-70
2021/03/24 11:35:24;;;;;;;;;;;;;;;;;;5035734;28;19990;-69
2021/03/24 11:37:50;;;;;;;;;;;;;;;;;;5030770;28;19938;-69
2021/03/24 11:40:16;;;;;;;;;;;;;;;;;;5025241;28;20032;-70
2021/03/24 11:42:42;;;;;;;;;;;;;;;;;;5045928;28;20374;-69
2021/03/24 11:45:08;;;;;;;;;;;;;;;;;;5035043;28;19934;-69
2021/03/24 11:47:34;;;;;;;;;;;;;;;;;;5031084;28;19966;-70
2021/03/24 11:50:00;;;;;;;;;;;;;;;;;;5033312;28;19991;-69
2021/03/24 11:52:25;;;;;;;;;;;;;;;;;;5033721;28;19954;-69
2021/03/24 11:54:51;;;;;;;;;;;;;;;;;;5037190;28;19945;-70
2021/03/24 11:57:17;;;;;;;;;;;;;;;;;;5031798;28;19947;-69
2021/03/24 11:59:43;;;;;;;;;;;;;;;;;;5033359;28;19972;-69
2021/03/24 12:02:09;;;;;;;;;;;;;;;;;;5028201;28;20251;-69
2021/03/24 12:04:35;;;;;;;;;;;;;;;;;;5032230;28;20031;-69
2021/03/24 12:07:00;;;;;;;;;;;;;;;;;;5033229;28;19944;-69
2021/03/24 12:09:26;;;;;;;;;;;;;;;;;;5035304;28;20173;-69
2021/03/24 12:11:52;;;;;;;;;;;;;;;;;;5035440;28;19950;-69
2021/03/24 12:14:18;;;;;;;;;;;;;;;;;;5036575;28;19955;-69
2021/03/24 12:16:44;;;;;;;;;;;;;;;;;;5035665;28;19936;-68
2021/03/24 12:19:10;;;;;;;;;;;;;;;;;;5035206;28;20274;-69
2021/03/24 12:21:36;;;;;;;;;;;;;;;;;;5033815;28;19955;-67
2021/03/24 12:24:01;;;;;;;;;;;;;;;;;;5036530;28;20239;-69
2021/03/24 12:26:27;;;;;;;;;;;;;;;;;;5037606;28;19962;-69
2021/03/24 12:28:55;;;;;;;;;;;;;;;;;;5038750;28;19930;-69
2021/03/24 12:31:21;;;;;;;;;;;;;;;;;;5040023;28;19943;-70
2021/03/24 12:33:47;;;;;;;;;;;;;;;;;;5036975;28;19998;-70
2021/03/24 12:36:14;;;;;;;;;;;;;;;;;;5040388;28;19939;-69
2021/03/24 12:38:40;;;;;;;;;;;;;;;;;;5040322;28;20031;-69
2021/03/24 12:41:06;;;;;;;;;;;;;;;;;;5038745;28;19947;-68
2021/03/24 12:43:32;;;;;;;;;;;;;;;;;;5037119;28;19932;-69
2021/03/24 12:45:58;;;;;;;;;;;;;;;;;;5035216;28;19931;-68
2021/03/24 12:48:24;;;;;;;;;;;;;;;;;;5036297;28;19965;-70
2021/03/24 12:50:50;;;;;;;;;;;;;;;;;;5035161;28;20459;-70
2021/03/24 12:53:16;;;;;;;;;;;;;;;;;;5035266;28;19943;-68
2021/03/24 12:55:43;;;;;;;;;;;;;;;;;;5035619;28;19920;-67
2021/03/24 12:58:09;;;;;;;;;;;;;;;;;;5031344;28;20434;-68
2021/03/24 13:00:34;;;;;;;;;;;;;;;;;;5030422;28;19960;-60
2021/03/24 13:03:00;;;;;;;;;;;;;;;;;;5024443;28;20037;-61
2021/03/24 13:05:26;;;;;;;;;;;;;;;;;;5031269;28;20118;-69
2021/03/24 13:07:52;;;;;;;;;;;;;;;;;;5035014;28;20034;-67
2021/03/24 13:10:18;;;;;;;;;;;;;;;;;;5036814;28;19949;-67
2021/03/24 13:12:44;;;;;;;;;;;;;;;;;;5034830;28;20047;-68
2021/03/24 13:15:10;;;;;;;;;;;;;;;;;;5035641;28;20391;-68
2021/03/24 13:17:35;;;;;;;;;;;;;;;;;;5032742;28;19968;-68
2021/03/24 13:20:01;;;;;;;;;;;;;;;;;;5031024;28;19969;-68
2021/03/24 13:22:27;;;;;;;;;;;;;;;;;;5032157;28;20045;-69
2021/03/24 13:24:53;;;;;;;;;;;;;;;;;;5029257;28;20393;-69
2021/03/24 13:27:19;;;;;;;;;;;;;;;;;;5028110;28;19928;-69
2021/03/24 13:29:46;;;;;;;;;;;;;;;;;;5020231;28;20453;-69
2021/03/24 13:32:12;;;;;;;;;;;;;;;;;;5037281;28;19953;-69
2021/03/24 13:34:37;;;;;;;;;;;;;;;;;;5039021;28;19933;-69
2021/03/24 13:37:04;;;;;;;;;;;;;;;;;;5037671;28;20093;-68
2021/03/24 13:39:30;;;;;;;;;;;;;;;;;;5040286;28;19926;-69
2021/03/24 13:41:56;;;;;;;;;;;;;;;;;;5038902;28;19957;-67
2021/03/24 13:44:22;;;;;;;;;;;;;;;;;;5040481;28;19933;-69
2021/03/24 13:46:47;;;;;;;;;;;;;;;;;;5039644;28;19929;-67
2021/03/24 13:49:13;;;;;;;;;;;;;;;;;;5037289;28;19946;-68
2021/03/24 13:51:39;;;;;;;;;;;;;;;;;;5038137;28;20266;-68
2021/03/24 13:54:05;;;;;;;;;;;;;;;;;;5049230;28;19931;-68
2021/03/24 13:56:32;;;;;;;;;;;;;;;;;;5036756;28;20009;-70
2021/03/24 13:59:00;;;;;;;;;;;;;;;;;;5036439;28;19938;-69
2021/03/24 14:01:26;;;;;;;;;;;;;;;;;;5044599;28;19948;-68
2021/03/24 14:03:52;;;;;;;;;;;;;;;;;;5040101;28;20322;-69
2021/03/24 14:06:17;;;;;;;;;;;;;;;;;;5040004;28;19956;-68
2021/03/24 14:08:43;;;;;;;;;;;;;;;;;;5039466;28;19995;-69
2021/03/24 14:11:09;;;;;;;;;;;;;;;;;;5037944;28;20019;-68
2021/03/24 14:13:35;;;;;;;;;;;;;;;;;;5034093;28;19957;-68
2021/03/24 14:16:01;;;;;;;;;;;;;;;;;;5035895;28;19929;-68
2021/03/24 14:18:27;;;;;;;;;;;;;;;;;;5035932;28;19932;-66
2021/03/24 14:20:54;;;;;;;;;;;;;;;;;;5018491;28;20134;-68
2021/03/24 14:23:20;;;;;;;;;;;;;;;;;;5027547;28;19923;-68
2021/03/24 14:25:46;;;;;;;;;;;;;;;;;;5020447;28;19931;-67
2021/03/24 14:28:11;;;;;;;;;;;;;;;;;;5028114;28;20456;-68
2021/03/24 14:30:40;;;;;;;870.90;798.83;;;;;;;;;;5027821;28;20457;-67
2021/03/24 14:33:09;;;;;;;802.03;733.73;;;;;;;;;;5033646;28;20464;-67
2021/03/24 14:35:53;;;;;;;723.50;654.70;;;;;;;;;;5037482;28;20400;-68
2021/03/24 14:38:55;;;;;;;672.93;612.53;;;;;;;;;;5038775;28;20786;-68
2021/03/24 14:41:24;;;;;;;618.13;567.57;;;;;;;;;;4996235;28;20464;-68
2021/03/24 14:44:09;;;;;;;477.03;448.50;;;;;;;;;;5027954;28;20466;-67
2021/03/24 14:46:35;;;;;;;667.50;611.47;;;;;;;;;;5032893;28;20404;-67
2021/03/24 14:49:06;;;;;;;638.57;572.83;;;;;;;;;;5039017;28;20767;-68
2021/03/24 14:51:37;;;;;;;609.67;546.87;;;;;;;;;;5039453;28;20444;-68
2021/03/24 14:54:18;;;;;;;478.33;431.33;;;;;;;;;;5048668;28;20415;-67
2021/03/24 14:56:44;;;;;;;125.93;116.40;;;;;;;;;;5041959;28;20386;-66
2021/03/24 14:59:32;;;;;;;410.13;382.80;;;;;;;;;;5039450;28;20382;-68
2021/03/24 15:02:30;;;;;;;657.23;597.47;;;;;;;;;;5034868;28;20442;-68
2021/03/24 15:04:56;;;;;;;630.63;566.27;;;;;;;;;;4991932;28;20425;-69
2021/03/24 15:07:28;;;;;;;625.40;558.97;;;;;;;;;;5030600;28;20494;-67
2021/03/24 15:10:14;;;;;;;585.80;509.43;;;;;;;;;;5033235;28;20470;-68
2021/03/24 15:12:42;;;;;;;615.97;549.90;;;;;;;;;;5030039;28;20455;-69
2021/03/24 15:15:08;;;;;;;591.47;528.77;;;;;;;;;;5029602;28;20416;-67
2021/03/24 15:17:53;;;;;;;552.40;462.77;;;;;;;;;;5028691;28;20456;-66
2021/03/24 15:20:24;;;;;;;593.87;529.27;;;;;;;;;;5028201;28;20198;-67
2021/03/24 15:23:09;;;;;;;659.27;591.00;;;;;;;;;;5032927;28;20423;-67
2021/03/24 15:25:44;;;;;;;590.70;526.17;;;;;;;;;;5033308;28;20415;-68
2021/03/24 15:28:10;;;;;;;546.03;412.00;;;;;;;;;;5032575;28;20486;-69
2021/03/24 15:30:54;;;;;;;568.03;478.33;;;;;;;;;;5027921;28;20213;-67
2021/03/24 15:33:29;;;;;;;549.83;433.98;;;;;;;;;;5029345;28;20455;-67
2021/03/24 15:35:55;;;;;;;559.95;466.98;;;;;;;;;;5028463;28;20205;-68
2021/03/24 15:38:24;;;;;;;565.73;456.93;;;;;;;;;;5029117;28;20162;-66
2021/03/24 15:41:05;;;;;;;580.40;494.23;;;;;;;;;;5027447;28;20428;-67
2021/03/24 15:43:33;;;;;;;549.55;412.27;;;;;;;;;;5030481;28;20401;-67
2021/03/24 15:46:10;;;;;;;598.23;506.63;;;;;;;;;;5034540;28;20178;-68
2021/03/24 15:48:36;;;;;;;531.58;398.25;;;;;;;;;;5028931;28;20407;-67
2021/03/24 15:51:05;;;;;;;565.97;455.77;;;;;;;;;;5028351;28;20182;-67
2021/03/24 15:53:35;;;;;;;581.00;478.47;;;;;;;;;;5030895;28;20485;-67
2021/03/24 15:56:33;;;;;;;589.97;536.33;;;;;;;;;;5029192;28;20397;-67
2021/03/24 15:59:05;;;;;;;547.33;390.90;;;;;;;;;;4971323;28;20531;-67
2021/03/24 16:01:42;;;;;;;542.43;359.53;;;;;;;;;;5014243;28;20437;-68
2021/03/24 16:04:17;;;;;;;580.07;482.27;;;;;;;;;;5030574;28;20923;-67
2021/03/24 16:06:47;;;;;;;605.30;497.97;;;;;;;;;;5026900;28;20444;-67
2021/03/24 16:09:15;;;;;;;437.93;398.17;;;;;;;;;;5029600;28;20759;-67
2021/03/24 16:11:59;;;;;;;416.10;387.57;;;;;;;;;;5027543;28;20502;-68
2021/03/24 16:14:35;;;;;;;566.53;518.67;;;;;;;;;;5013880;28;20383;-67
2021/03/24 16:17:01;;;;;;;552.77;485.67;;;;;;;;;;5028377;28;20418;-67
2021/03/24 16:19:48;;;;;;;584.33;492.50;;;;;;;;;;5023991;28;20405;-67
2021/03/24 16:22:25;;;;;;;426.53;381.87;;;;;;;;;;5072317;22;20996;-71